sensor_id;sensor_type;location;lat;lon;timestamp;pressure;altitude;pressure_sealevel;temperature;humidity
13705;BME280;6924;52.122;9.952;2022-08-19T00:02:17;100195.44;;;20.46;97.78
13705;BME280;6924;52.122;9.952;2022-08-19T00:04:44;100190.09;;;20.44;97.34
13705;BME280;6924;52.122;9.952;2022-08-19T00:07:13;100184.69;;;20.39;97.20
13705;BME280;6924;52.122;9.952;2022-08-19T00:09:39;100195.28;;;20.35;97.33
13705;BME280;6924;52.122;9.952;2022-08-19T00:12:06;100191.97;;;20.29;97.18
13705;BME280;6924;52.122;9.952;2022-08-19T00:14:35;100195.66;;;20.30;97.52
13705;BME280;6924;52.122;9.952;2022-08-19T00:17:02;100200.19;;;20.31;96.80
13705;BME280;6924;52.122;9.952;2022-08-19T00:19:30;100195.22;;;20.28;96.83
13705;BME280;6924;52.122;9.952;2022-08-19T00:21:56;100190.28;;;20.28;97.10
13705;BME280;6924;52.122;9.952;2022-08-19T00:24:23;100189.09;;;20.29;97.04
13705;BME280;6924;52.122;9.952;2022-08-19T00:26:49;100189.09;;;20.29;97.21
13705;BME280;6924;52.122;9.952;2022-08-19T00:29:18;100193.13;;;20.25;97.08
13705;BME280;6924;52.122;9.952;2022-08-19T00:31:46;100181.22;;;20.22;97.42
13705;BME280;6924;52.122;9.952;2022-08-19T00:34:14;100183.25;;;20.22;97.08
13705;BME280;6924;52.122;9.952;2022-08-19T00:36:42;100177.47;;;20.18;97.53
13705;BME280;6924;52.122;9.952;2022-08-19T00:39:09;100182.81;;;20.20;97.20
13705;BME280;6924;52.122;9.952;2022-08-19T00:41:36;100186.06;;;20.18;97.30
13705;BME280;6924;52.122;9.952;2022-08-19T00:44:05;100186.44;;;20.17;97.07
13705;BME280;6924;52.122;9.952;2022-08-19T00:46:34;100188.88;;;20.15;96.60
13705;BME280;6924;52.122;9.952;2022-08-19T00:49:08;100183.44;;;20.06;96.99
13705;BME280;6924;52.122;9.952;2022-08-19T00:51:35;100186.13;;;19.92;96.91
13705;BME280;6924;52.122;9.952;2022-08-19T00:54:02;100191.41;;;19.90;96.66
13705;BME280;6924;52.122;9.952;2022-08-19T00:56:30;100181.97;;;19.89;96.78
13705;BME280;6924;52.122;9.952;2022-08-19T00:58:58;100184.34;;;19.84;97.11
13705;BME280;6924;52.122;9.952;2022-08-19T01:01:25;100179.31;;;19.77;96.94
13705;BME280;6924;52.122;9.952;2022-08-19T01:03:51;100184.69;;;19.78;96.81
13705;BME280;6924;52.122;9.952;2022-08-19T01:06:19;100171.53;;;19.77;96.80
13705;BME280;6924;52.122;9.952;2022-08-19T01:08:46;100175.13;;;19.71;96.46
13705;BME280;6924;52.122;9.952;2022-08-19T01:11:13;100173.00;;;19.68;95.95
13705;BME280;6924;52.122;9.952;2022-08-19T01:13:40;100171.66;;;19.58;96.70
13705;BME280;6924;52.122;9.952;2022-08-19T01:16:08;100166.13;;;19.46;98.11
13705;BME280;6924;52.122;9.952;2022-08-19T01:18:38;100160.31;;;19.42;98.24
13705;BME280;6924;52.122;9.952;2022-08-19T01:21:10;100159.94;;;19.44;98.07
13705;BME280;6924;52.122;9.952;2022-08-19T01:23:42;100157.41;;;19.38;98.09
13705;BME280;6924;52.122;9.952;2022-08-19T01:26:11;100160.31;;;19.42;98.21
13705;BME280;6924;52.122;9.952;2022-08-19T01:28:38;100166.53;;;19.21;97.60
13705;BME280;6924;52.122;9.952;2022-08-19T01:31:09;100169.41;;;19.21;98.53
13705;BME280;6924;52.122;9.952;2022-08-19T01:33:36;100167.09;;;19.30;98.33
13705;BME280;6924;52.122;9.952;2022-08-19T01:36:06;100159.19;;;19.24;98.26
13705;BME280;6924;52.122;9.952;2022-08-19T01:38:35;100163.28;;;19.23;98.18
13705;BME280;6924;52.122;9.952;2022-08-19T01:41:04;100162.13;;;19.27;98.53
13705;BME280;6924;52.122;9.952;2022-08-19T01:43:31;100159.91;;;19.17;97.87
13705;BME280;6924;52.122;9.952;2022-08-19T01:45:57;100155.50;;;19.23;97.87
13705;BME280;6924;52.122;9.952;2022-08-19T01:48:24;100151.81;;;19.23;97.65
13705;BME280;6924;52.122;9.952;2022-08-19T01:50:50;100149.81;;;19.27;97.94
13705;BME280;6924;52.122;9.952;2022-08-19T01:53:17;100147.34;;;19.25;96.86
13705;BME280;6924;52.122;9.952;2022-08-19T01:55:43;100151.03;;;19.26;97.24
13705;BME280;6924;52.122;9.952;2022-08-19T01:58:15;100140.66;;;19.17;97.20
13705;BME280;6924;52.122;9.952;2022-08-19T02:00:43;100141.47;;;19.18;96.93
13705;BME280;6924;52.122;9.952;2022-08-19T02:03:10;100148.44;;;19.17;96.54
13705;BME280;6924;52.122;9.952;2022-08-19T02:05:37;100150.53;;;19.20;97.15
13705;BME280;6924;52.122;9.952;2022-08-19T02:08:04;100152.91;;;19.14;97.57
13705;BME280;6924;52.122;9.952;2022-08-19T02:10:31;100149.66;;;19.16;97.46
13705;BME280;6924;52.122;9.952;2022-08-19T02:12:57;100147.66;;;19.20;97.14
13705;BME280;6924;52.122;9.952;2022-08-19T02:15:25;100137.75;;;19.14;97.29
13705;BME280;6924;52.122;9.952;2022-08-19T02:17:51;100132.84;;;19.14;97.21
13705;BME280;6924;52.122;9.952;2022-08-19T02:20:18;100137.31;;;19.12;97.14
13705;BME280;6924;52.122;9.952;2022-08-19T02:22:44;100145.91;;;19.12;96.73
13705;BME280;6924;52.122;9.952;2022-08-19T02:25:12;100135.84;;;18.98;97.20
13705;BME280;6924;52.122;9.952;2022-08-19T02:27:40;100144.50;;;19.02;97.35
13705;BME280;6924;52.122;9.952;2022-08-19T02:30:10;100149.84;;;19.04;97.31
13705;BME280;6924;52.122;9.952;2022-08-19T02:32:38;100147.06;;;19.07;97.17
13705;BME280;6924;52.122;9.952;2022-08-19T02:35:06;100149.06;;;19.07;97.10
13705;BME280;6924;52.122;9.952;2022-08-19T02:37:32;100137.59;;;19.07;97.04
13705;BME280;6924;52.122;9.952;2022-08-19T02:40:16;100141.88;;;18.93;97.31
13705;BME280;6924;52.122;9.952;2022-08-19T02:42:43;100152.16;;;18.94;97.49
13705;BME280;6924;52.122;9.952;2022-08-19T02:45:10;100154.13;;;18.90;97.79
13705;BME280;6924;52.122;9.952;2022-08-19T02:47:38;100158.69;;;18.95;97.59
13705;BME280;6924;52.122;9.952;2022-08-19T02:50:06;100153.34;;;18.93;97.34
13705;BME280;6924;52.122;9.952;2022-08-19T02:52:33;100163.28;;;18.99;97.49
13705;BME280;6924;52.122;9.952;2022-08-19T02:55:00;100158.00;;;19.02;97.39
13705;BME280;6924;52.122;9.952;2022-08-19T02:57:27;100164.19;;;19.04;97.18
13705;BME280;6924;52.122;9.952;2022-08-19T02:59:56;100166.66;;;19.05;96.75
13705;BME280;6924;52.122;9.952;2022-08-19T03:02:22;100172.84;;;19.07;96.38
13705;BME280;6924;52.122;9.952;2022-08-19T03:04:50;100167.94;;;19.08;96.45
13705;BME280;6924;52.122;9.952;2022-08-19T03:07:17;100167.94;;;19.08;96.81
13705;BME280;6924;52.122;9.952;2022-08-19T03:09:44;100167.13;;;19.07;97.66
13705;BME280;6924;52.122;9.952;2022-08-19T03:12:11;100169.91;;;19.04;97.67
13705;BME280;6924;52.122;9.952;2022-08-19T03:14:37;100171.50;;;19.01;97.79
13705;BME280;6924;52.122;9.952;2022-08-19T03:17:04;100181.38;;;19.04;97.74
13705;BME280;6924;52.122;9.952;2022-08-19T03:19:31;100175.56;;;19.00;97.88
13705;BME280;6924;52.122;9.952;2022-08-19T03:21:58;100166.84;;;18.93;98.47
13705;BME280;6924;52.122;9.952;2022-08-19T03:24:25;100171.00;;;18.76;99.56
13705;BME280;6924;52.122;9.952;2022-08-19T03:26:54;100164.94;;;18.77;99.58
13705;BME280;6924;52.122;9.952;2022-08-19T03:29:22;100159.28;;;18.81;99.96
13705;BME280;6924;52.122;9.952;2022-08-19T03:31:49;100166.19;;;18.80;100.00
13705;BME280;6924;52.122;9.952;2022-08-19T03:34:19;100164.22;;;18.84;100.00
13705;BME280;6924;52.122;9.952;2022-08-19T03:36:46;100163.91;;;18.89;99.86
13705;BME280;6924;52.122;9.952;2022-08-19T03:39:15;100159.47;;;18.92;99.99
13705;BME280;6924;52.122;9.952;2022-08-19T03:41:43;100157.44;;;18.92;99.69
13705;BME280;6924;52.122;9.952;2022-08-19T03:44:10;100163.22;;;18.96;99.77
13705;BME280;6924;52.122;9.952;2022-08-19T03:46:37;100169.34;;;18.94;99.80
13705;BME280;6924;52.122;9.952;2022-08-19T03:49:04;100165.69;;;18.97;99.54
13705;BME280;6924;52.122;9.952;2022-08-19T03:51:34;100166.97;;;19.00;99.83
13705;BME280;6924;52.122;9.952;2022-08-19T03:54:03;100162.91;;;19.01;99.30
13705;BME280;6924;52.122;9.952;2022-08-19T03:56:33;100162.91;;;19.01;98.91
13705;BME280;6924;52.122;9.952;2022-08-19T03:59:00;100164.19;;;19.04;98.78
13705;BME280;6924;52.122;9.952;2022-08-19T04:01:28;100160.94;;;19.05;99.04
13705;BME280;6924;52.122;9.952;2022-08-19T04:03:56;100163.81;;;19.05;98.79
13705;BME280;6924;52.122;9.952;2022-08-19T04:06:24;100165.00;;;19.04;98.54
13705;BME280;6924;52.122;9.952;2022-08-19T04:08:52;100178.13;;;19.05;98.58
13705;BME280;6924;52.122;9.952;2022-08-19T04:11:22;100169.97;;;19.07;98.67
13705;BME280;6924;52.122;9.952;2022-08-19T04:13:51;100172.41;;;19.05;98.48
13705;BME280;6924;52.122;9.952;2022-08-19T04:16:19;100167.03;;;19.04;98.77
13705;BME280;6924;52.122;9.952;2022-08-19T04:18:46;100171.56;;;19.05;98.90
13705;BME280;6924;52.122;9.952;2022-08-19T04:21:16;100177.69;;;19.03;98.71
13705;BME280;6924;52.122;9.952;2022-08-19T04:23:44;100169.91;;;19.04;98.71
13705;BME280;6924;52.122;9.952;2022-08-19T04:26:13;100173.03;;;18.95;99.06
13705;BME280;6924;52.122;9.952;2022-08-19T04:28:41;100174.25;;;18.94;99.05
13705;BME280;6924;52.122;9.952;2022-08-19T04:31:12;100182.41;;;18.92;99.23
13705;BME280;6924;52.122;9.952;2022-08-19T04:33:39;100187.22;;;18.88;99.12
13705;BME280;6924;52.122;9.952;2022-08-19T04:36:06;100180.59;;;18.84;99.50
13705;BME280;6924;52.122;9.952;2022-08-19T04:38:33;100185.44;;;18.79;99.68
13705;BME280;6924;52.122;9.952;2022-08-19T04:40:59;100185.44;;;18.79;99.83
13705;BME280;6924;52.122;9.952;2022-08-19T04:43:39;100184.22;;;18.81;99.70
13705;BME280;6924;52.122;9.952;2022-08-19T04:46:07;100191.53;;;18.78;99.91
13705;BME280;6924;52.122;9.952;2022-08-19T04:48:36;100192.81;;;18.81;99.73
13705;BME280;6924;52.122;9.952;2022-08-19T04:51:07;100199.38;;;18.81;99.40
13705;BME280;6924;52.122;9.952;2022-08-19T04:53:36;100201.63;;;18.72;99.76
13705;BME280;6924;52.122;9.952;2022-08-19T04:56:06;100195.13;;;18.75;99.75
13705;BME280;6924;52.122;9.952;2022-08-19T04:58:33;100185.06;;;18.62;100.00
13705;BME280;6924;52.122;9.952;2022-08-19T05:01:00;100171.88;;;18.57;100.00
13705;BME280;6924;52.122;9.952;2022-08-19T05:03:26;100179.34;;;18.62;100.00
13705;BME280;6924;52.122;9.952;2022-08-19T05:05:56;100169.97;;;18.65;100.00
13705;BME280;6924;52.122;9.952;2022-08-19T05:08:23;100160.19;;;18.66;100.00
13705;BME280;6924;52.122;9.952;2022-08-19T05:10:51;100158.22;;;18.70;100.00
13705;BME280;6924;52.122;9.952;2022-08-19T05:13:19;100167.88;;;18.62;100.00
13705;BME280;6924;52.122;9.952;2022-08-19T05:15:53;100177.38;;;18.66;100.00
13705;BME280;6924;52.122;9.952;2022-08-19T05:18:20;100172.91;;;18.68;99.90
13705;BME280;6924;52.122;9.952;2022-08-19T05:21:07;100176.69;;;18.72;99.91
13705;BME280;6924;52.122;9.952;2022-08-19T05:23:51;100177.56;;;18.76;99.96
13705;BME280;6924;52.122;9.952;2022-08-19T05:26:18;100185.44;;;18.79;99.74
13705;BME280;6924;52.122;9.952;2022-08-19T05:28:44;100193.25;;;18.83;99.74
13705;BME280;6924;52.122;9.952;2022-08-19T05:31:11;100195.75;;;18.84;99.25
13705;BME280;6924;52.122;9.952;2022-08-19T05:33:37;100195.75;;;18.84;98.36
13705;BME280;6924;52.122;9.952;2022-08-19T05:36:06;100194.47;;;18.82;98.21
13705;BME280;6924;52.122;9.952;2022-08-19T05:38:33;100192.59;;;18.70;97.80
13705;BME280;6924;52.122;9.952;2022-08-19T05:41:00;100178.28;;;18.50;98.96
13705;BME280;6924;52.122;9.952;2022-08-19T05:43:27;100188.69;;;18.39;99.85
13705;BME280;6924;52.122;9.952;2022-08-19T05:45:54;100184.63;;;18.40;100.00
13705;BME280;6924;52.122;9.952;2022-08-19T05:48:20;100192.38;;;18.40;100.00
13705;BME280;6924;52.122;9.952;2022-08-19T05:50:47;100195.03;;;18.48;100.00
13705;BME280;6924;52.122;9.952;2022-08-19T05:53:16;100203.38;;;18.57;99.63
13705;BME280;6924;52.122;9.952;2022-08-19T05:55:43;100189.44;;;18.55;99.31
13705;BME280;6924;52.122;9.952;2022-08-19T05:58:09;100193.06;;;18.33;100.00
13705;BME280;6924;52.122;9.952;2022-08-19T06:00:37;100194.78;;;18.37;100.00
13705;BME280;6924;52.122;9.952;2022-08-19T06:03:04;100196.97;;;18.44;99.87
13705;BME280;6924;52.122;9.952;2022-08-19T06:05:30;100205.25;;;18.49;99.94
13705;BME280;6924;52.122;9.952;2022-08-19T06:07:57;100210.25;;;18.52;98.59
13705;BME280;6924;52.122;9.952;2022-08-19T06:10:27;100200.28;;;18.46;98.73
13705;BME280;6924;52.122;9.952;2022-08-19T06:12:53;100197.94;;;18.52;98.88
13705;BME280;6924;52.122;9.952;2022-08-19T06:15:21;100202.78;;;18.48;98.88
13705;BME280;6924;52.122;9.952;2022-08-19T06:17:50;100200.22;;;18.43;98.37
13705;BME280;6924;52.122;9.952;2022-08-19T06:20:17;100206.47;;;18.29;99.46
13705;BME280;6924;52.122;9.952;2022-08-19T06:22:47;100215.28;;;18.20;99.37
13705;BME280;6924;52.122;9.952;2022-08-19T06:25:15;100221.31;;;18.15;100.00
13705;BME280;6924;52.122;9.952;2022-08-19T06:27:43;100216.09;;;18.21;99.91
13705;BME280;6924;52.122;9.952;2022-08-19T06:30:11;100220.19;;;18.20;100.00
13705;BME280;6924;52.122;9.952;2022-08-19T06:32:38;100213.09;;;18.13;100.00
13705;BME280;6924;52.122;9.952;2022-08-19T06:35:06;100217.53;;;18.11;100.00
13705;BME280;6924;52.122;9.952;2022-08-19T06:37:32;100229.81;;;18.11;100.00
13705;BME280;6924;52.122;9.952;2022-08-19T06:39:59;100233.22;;;18.17;100.00
13705;BME280;6924;52.122;9.952;2022-08-19T06:42:25;100234.66;;;18.27;100.00
13705;BME280;6924;52.122;9.952;2022-08-19T06:44:53;100234.19;;;18.25;99.78
13705;BME280;6924;52.122;9.952;2022-08-19T06:47:21;100242.09;;;18.31;99.63
13705;BME280;6924;52.122;9.952;2022-08-19T06:49:47;100238.19;;;18.20;100.00
13705;BME280;6924;52.122;9.952;2022-08-19T06:52:14;100246.69;;;18.16;100.00
13705;BME280;6924;52.122;9.952;2022-08-19T06:54:41;100251.31;;;18.21;99.98
13705;BME280;6924;52.122;9.952;2022-08-19T06:57:08;100265.38;;;18.30;99.75
13705;BME280;6924;52.122;9.952;2022-08-19T06:59:40;100263.97;;;18.40;99.26
13705;BME280;6924;52.122;9.952;2022-08-19T07:02:08;100259.16;;;18.44;98.78
13705;BME280;6924;52.122;9.952;2022-08-19T07:04:35;100259.22;;;18.47;99.42
13705;BME280;6924;52.122;9.952;2022-08-19T07:07:05;100264.25;;;18.54;99.20
13705;BME280;6924;52.122;9.952;2022-08-19T07:09:33;100271.34;;;18.60;98.78
13705;BME280;6924;52.122;9.952;2022-08-19T07:12:03;100280.94;;;18.68;98.40
13705;BME280;6924;52.122;9.952;2022-08-19T07:14:30;100271.91;;;18.66;97.75
13705;BME280;6924;52.122;9.952;2022-08-19T07:16:56;100281.00;;;18.71;97.04
13705;BME280;6924;52.122;9.952;2022-08-19T07:19:26;100286.00;;;18.74;97.01
13705;BME280;6924;52.122;9.952;2022-08-19T07:21:54;100290.88;;;18.74;96.62
13705;BME280;6924;52.122;9.952;2022-08-19T07:24:21;100291.31;;;18.76;96.87
13705;BME280;6924;52.122;9.952;2022-08-19T07:26:51;100296.81;;;18.81;95.73
13705;BME280;6924;52.122;9.952;2022-08-19T07:29:19;100301.31;;;18.82;94.94
13705;BME280;6924;52.122;9.952;2022-08-19T07:31:48;100300.56;;;18.85;94.35
13705;BME280;6924;52.122;9.952;2022-08-19T07:34:15;100316.31;;;18.95;94.35
13705;BME280;6924;52.122;9.952;2022-08-19T07:36:43;100315.19;;;18.99;92.95
13705;BME280;6924;52.122;9.952;2022-08-19T07:39:13;100313.13;;;19.00;92.60
13705;BME280;6924;52.122;9.952;2022-08-19T07:41:40;100324.31;;;19.05;91.81
13705;BME280;6924;52.122;9.952;2022-08-19T07:44:08;100320.31;;;19.10;91.56
13705;BME280;6924;52.122;9.952;2022-08-19T07:46:36;100326.03;;;19.10;90.74
13705;BME280;6924;52.122;9.952;2022-08-19T07:49:04;100321.38;;;19.02;91.03
13705;BME280;6924;52.122;9.952;2022-08-19T07:51:31;100315.31;;;19.07;91.18
13705;BME280;6924;52.122;9.952;2022-08-19T07:53:59;100317.44;;;19.10;92.18
13705;BME280;6924;52.122;9.952;2022-08-19T07:56:26;100326.78;;;19.07;92.72
13705;BME280;6924;52.122;9.952;2022-08-19T07:58:53;100324.13;;;19.17;91.27
13705;BME280;6924;52.122;9.952;2022-08-19T08:01:23;100333.56;;;19.18;90.33
13705;BME280;6924;52.122;9.952;2022-08-19T08:03:51;100326.94;;;19.14;90.86
13705;BME280;6924;52.122;9.952;2022-08-19T08:06:35;100329.88;;;19.17;91.51
13705;BME280;6924;52.122;9.952;2022-08-19T08:09:24;100334.78;;;19.17;91.12
13705;BME280;6924;52.122;9.952;2022-08-19T08:11:55;100335.34;;;19.03;92.68
13705;BME280;6924;52.122;9.952;2022-08-19T08:14:24;100336.69;;;19.09;92.12
13705;BME280;6924;52.122;9.952;2022-08-19T08:16:51;100333.72;;;19.25;91.25
13705;BME280;6924;52.122;9.952;2022-08-19T08:19:20;100320.47;;;19.40;91.30
13705;BME280;6924;52.122;9.952;2022-08-19T08:21:48;100319.84;;;19.50;89.43
13705;BME280;6924;52.122;9.952;2022-08-19T08:24:16;100325.22;;;19.52;88.42
13705;BME280;6924;52.122;9.952;2022-08-19T08:26:44;100314.19;;;19.54;89.01
13705;BME280;6924;52.122;9.952;2022-08-19T08:29:11;100325.06;;;19.68;88.36
13705;BME280;6924;52.122;9.952;2022-08-19T08:31:39;100325.66;;;19.77;87.63
13705;BME280;6924;52.122;9.952;2022-08-19T08:34:05;100330.47;;;19.69;85.84
13705;BME280;6924;52.122;9.952;2022-08-19T08:36:32;100338.06;;;19.61;85.00
13705;BME280;6924;52.122;9.952;2022-08-19T08:38:59;100337.13;;;19.54;86.25
13705;BME280;6924;52.122;9.952;2022-08-19T08:41:31;100343.06;;;19.65;86.72
13705;BME280;6924;52.122;9.952;2022-08-19T08:44:02;100344.41;;;19.71;85.02
13705;BME280;6924;52.122;9.952;2022-08-19T08:46:34;100354.38;;;19.57;84.87
13705;BME280;6924;52.122;9.952;2022-08-19T08:49:09;100353.91;;;19.52;83.69
13705;BME280;6924;52.122;9.952;2022-08-19T08:51:41;100356.19;;;19.43;83.76
13705;BME280;6924;52.122;9.952;2022-08-19T08:54:12;100340.00;;;19.54;84.21
13705;BME280;6924;52.122;9.952;2022-08-19T08:56:39;100340.03;;;19.57;84.74
13705;BME280;6924;52.122;9.952;2022-08-19T08:59:15;100342.78;;;19.70;83.81
13705;BME280;6924;52.122;9.952;2022-08-19T09:01:44;100335.44;;;19.72;82.76
13705;BME280;6924;52.122;9.952;2022-08-19T09:04:12;100322.22;;;19.91;83.97
13705;BME280;6924;52.122;9.952;2022-08-19T09:06:47;100333.56;;;20.07;82.05
13705;BME280;6924;52.122;9.952;2022-08-19T09:09:20;100330.97;;;19.98;80.80
13705;BME280;6924;52.122;9.952;2022-08-19T09:11:55;100329.28;;;19.97;81.11
13705;BME280;6924;52.122;9.952;2022-08-19T09:14:34;100327.84;;;20.10;81.63
13705;BME280;6924;52.122;9.952;2022-08-19T09:17:03;100334.59;;;20.21;77.36
13705;BME280;6924;52.122;9.952;2022-08-19T09:19:33;100334.03;;;20.39;76.91
13705;BME280;6924;52.122;9.952;2022-08-19T09:22:00;100341.94;;;20.46;75.79
13705;BME280;6924;52.122;9.952;2022-08-19T09:24:26;100329.91;;;20.63;76.71
13705;BME280;6924;52.122;9.952;2022-08-19T09:26:53;100333.38;;;20.76;76.19
13705;BME280;6924;52.122;9.952;2022-08-19T09:29:20;100328.50;;;20.80;75.39
13705;BME280;6924;52.122;9.952;2022-08-19T09:31:48;100330.16;;;20.54;71.82
13705;BME280;6924;52.122;9.952;2022-08-19T09:34:15;100335.28;;;20.38;70.68
13705;BME280;6924;52.122;9.952;2022-08-19T09:36:41;100336.75;;;20.55;72.09
13705;BME280;6924;52.122;9.952;2022-08-19T09:39:08;100331.31;;;20.76;73.33
13705;BME280;6924;52.122;9.952;2022-08-19T09:41:34;100329.03;;;20.89;74.03
13705;BME280;6924;52.122;9.952;2022-08-19T09:44:01;100333.97;;;20.92;71.57
13705;BME280;6924;52.122;9.952;2022-08-19T09:46:28;100334.84;;;20.93;69.69
13705;BME280;6924;52.122;9.952;2022-08-19T09:48:59;100330.84;;;21.04;71.54
13705;BME280;6924;52.122;9.952;2022-08-19T09:51:27;100325.69;;;21.17;69.09
13705;BME280;6924;52.122;9.952;2022-08-19T09:53:58;100336.06;;;21.25;66.53
13705;BME280;6924;52.122;9.952;2022-08-19T09:56:25;100329.56;;;21.32;68.44
13705;BME280;6924;52.122;9.952;2022-08-19T09:58:51;100323.69;;;21.59;65.94
13705;BME280;6924;52.122;9.952;2022-08-19T10:01:20;100325.81;;;21.69;63.18
13705;BME280;6924;52.122;9.952;2022-08-19T10:03:50;100326.03;;;21.91;64.58
13705;BME280;6924;52.122;9.952;2022-08-19T10:06:19;100319.53;;;22.04;63.36
13705;BME280;6924;52.122;9.952;2022-08-19T10:08:46;100317.22;;;22.21;62.75
13705;BME280;6924;52.122;9.952;2022-08-19T10:11:13;100310.34;;;22.40;61.37
13705;BME280;6924;52.122;9.952;2022-08-19T10:13:41;100309.19;;;22.48;62.89
13705;BME280;6924;52.122;9.952;2022-08-19T10:16:11;100307.97;;;22.49;63.65
13705;BME280;6924;52.122;9.952;2022-08-19T10:18:38;100310.94;;;22.70;64.95
13705;BME280;6924;52.122;9.952;2022-08-19T10:21:10;100307.63;;;22.68;63.24
13705;BME280;6924;52.122;9.952;2022-08-19T10:23:40;100310.78;;;22.42;63.67
13705;BME280;6924;52.122;9.952;2022-08-19T10:26:11;100302.03;;;22.24;64.44
13705;BME280;6924;52.122;9.952;2022-08-19T10:28:38;100294.75;;;22.41;63.26
13705;BME280;6924;52.122;9.952;2022-08-19T10:31:06;100299.31;;;22.53;64.16
13705;BME280;6924;52.122;9.952;2022-08-19T10:33:33;100292.44;;;22.75;62.62
13705;BME280;6924;52.122;9.952;2022-08-19T10:36:00;100278.44;;;22.74;61.02
13705;BME280;6924;52.122;9.952;2022-08-19T10:38:27;100280.56;;;22.95;61.35
13705;BME280;6924;52.122;9.952;2022-08-19T10:40:55;100280.97;;;22.89;58.05
13705;BME280;6924;52.122;9.952;2022-08-19T10:43:22;100277.38;;;23.14;57.98
13705;BME280;6924;52.122;9.952;2022-08-19T10:45:52;100267.06;;;23.17;55.99
13705;BME280;6924;52.122;9.952;2022-08-19T10:48:20;100276.53;;;23.06;55.29
13705;BME280;6924;52.122;9.952;2022-08-19T10:50:46;100269.50;;;23.04;54.97
13705;BME280;6924;52.122;9.952;2022-08-19T10:53:30;100270.28;;;22.97;55.65
13705;BME280;6924;52.122;9.952;2022-08-19T10:55:58;100269.09;;;23.02;57.15
13705;BME280;6924;52.122;9.952;2022-08-19T10:58:42;100258.41;;;23.17;57.62
13705;BME280;6924;52.122;9.952;2022-08-19T11:01:09;100258.38;;;23.06;55.84
13705;BME280;6924;52.122;9.952;2022-08-19T11:03:36;100260.91;;;23.18;58.38
13705;BME280;6924;52.122;9.952;2022-08-19T11:06:05;100248.97;;;23.38;56.96
13705;BME280;6924;52.122;9.952;2022-08-19T11:08:33;100241.97;;;23.60;57.45
13705;BME280;6924;52.122;9.952;2022-08-19T11:11:02;100241.59;;;23.80;54.50
13705;BME280;6924;52.122;9.952;2022-08-19T11:13:29;100242.00;;;23.82;56.21
13705;BME280;6924;52.122;9.952;2022-08-19T11:15:58;100236.63;;;23.66;52.31
13705;BME280;6924;52.122;9.952;2022-08-19T11:18:24;100237.44;;;23.66;54.09
13705;BME280;6924;52.122;9.952;2022-08-19T11:20:51;100232.91;;;23.58;54.32
13705;BME280;6924;52.122;9.952;2022-08-19T11:23:18;100227.94;;;23.59;52.97
13705;BME280;6924;52.122;9.952;2022-08-19T11:25:44;100227.94;;;23.59;51.63
13705;BME280;6924;52.122;9.952;2022-08-19T11:28:12;100230.44;;;23.67;51.72
13705;BME280;6924;52.122;9.952;2022-08-19T11:30:40;100236.19;;;23.39;51.35
13705;BME280;6924;52.122;9.952;2022-08-19T11:33:06;100231.25;;;23.46;52.53
13705;BME280;6924;52.122;9.952;2022-08-19T11:35:38;100231.25;;;23.54;51.95
13705;BME280;6924;52.122;9.952;2022-08-19T11:38:05;100228.78;;;23.63;51.36
13705;BME280;6924;52.122;9.952;2022-08-19T11:40:31;100224.25;;;23.90;55.66
13705;BME280;6924;52.122;9.952;2022-08-19T11:42:58;100223.84;;;23.85;50.13
13705;BME280;6924;52.122;9.952;2022-08-19T11:45:27;100214.31;;;23.99;51.78
13705;BME280;6924;52.122;9.952;2022-08-19T11:47:55;100209.81;;;24.01;50.61
13705;BME280;6924;52.122;9.952;2022-08-19T11:50:22;100212.28;;;23.92;50.16
13705;BME280;6924;52.122;9.952;2022-08-19T11:52:49;100200.28;;;24.01;48.16
13705;BME280;6924;52.122;9.952;2022-08-19T11:55:16;100206.50;;;24.06;48.11
13705;BME280;6924;52.122;9.952;2022-08-19T11:57:42;100202.31;;;24.25;47.07
13705;BME280;6924;52.122;9.952;2022-08-19T12:00:10;100217.13;;;24.38;47.04
13705;BME280;6924;52.122;9.952;2022-08-19T12:02:39;100222.13;;;24.23;46.96
13705;BME280;6924;52.122;9.952;2022-08-19T12:05:07;100213.06;;;24.14;45.99
13705;BME280;6924;52.122;9.952;2022-08-19T12:07:34;100217.19;;;24.13;48.68
13705;BME280;6924;52.122;9.952;2022-08-19T12:10:01;100218.03;;;24.17;47.83
13705;BME280;6924;52.122;9.952;2022-08-19T12:12:28;100218.84;;;24.14;47.01
13705;BME280;6924;52.122;9.952;2022-08-19T12:14:55;100211.84;;;24.15;45.14
13705;BME280;6924;52.122;9.952;2022-08-19T12:17:24;100213.03;;;24.25;46.91
13705;BME280;6924;52.122;9.952;2022-08-19T12:19:52;100196.97;;;24.13;46.72
13705;BME280;6924;52.122;9.952;2022-08-19T12:22:18;100210.16;;;24.14;48.25
13705;BME280;6924;52.122;9.952;2022-08-19T12:24:46;100215.09;;;24.24;48.58
13705;BME280;6924;52.122;9.952;2022-08-19T12:27:13;100212.22;;;24.28;48.13
13705;BME280;6924;52.122;9.952;2022-08-19T12:29:39;100205.63;;;24.20;49.88
13705;BME280;6924;52.122;9.952;2022-08-19T12:32:06;100212.22;;;24.24;49.06
13705;BME280;6924;52.122;9.952;2022-08-19T12:34:34;100202.25;;;24.36;48.88
13705;BME280;6924;52.122;9.952;2022-08-19T12:37:05;100208.91;;;24.26;48.93
13705;BME280;6924;52.122;9.952;2022-08-19T12:39:35;100214.25;;;24.27;47.86
13705;BME280;6924;52.122;9.952;2022-08-19T12:42:02;100211.38;;;24.31;47.59
13705;BME280;6924;52.122;9.952;2022-08-19T12:44:28;100217.19;;;24.20;45.15
13705;BME280;6924;52.122;9.952;2022-08-19T12:46:57;100217.16;;;24.27;45.93
13705;BME280;6924;52.122;9.952;2022-08-19T12:49:24;100215.94;;;24.28;45.06
13705;BME280;6924;52.122;9.952;2022-08-19T12:51:50;100206.81;;;24.33;44.84
13705;BME280;6924;52.122;9.952;2022-08-19T12:54:18;100203.91;;;24.37;44.90
13705;BME280;6924;52.122;9.952;2022-08-19T12:56:45;100203.97;;;24.30;45.11
13705;BME280;6924;52.122;9.952;2022-08-19T12:59:11;100202.25;;;24.36;46.23
13705;BME280;6924;52.122;9.952;2022-08-19T13:01:38;100205.56;;;24.38;45.14
13705;BME280;6924;52.122;9.952;2022-08-19T13:04:05;100192.34;;;24.41;46.76
13705;BME280;6924;52.122;9.952;2022-08-19T13:06:32;100193.94;;;24.56;46.36